sensor_id;sensor_type;location;lat;lon;timestamp;pressure;altitude;pressure_sealevel;temperature;humidity
14293;BME280;62290;59.420;17.842;2023-04-25T00:00:24;99923.69;;;20.20;29.83
14293;BME280;62290;59.420;17.842;2023-04-25T00:02:54;99920.00;;;20.21;29.89
14293;BME280;62290;59.420;17.842;2023-04-25T00:05:25;99923.41;;;20.23;30.04
14293;BME280;62290;59.420;17.842;2023-04-25T00:07:53;99918.31;;;20.20;29.88
14293;BME280;62290;59.420;17.842;2023-04-25T00:10:21;99824.06;;;19.65;29.82
14293;BME280;62290;59.420;17.842;2023-04-25T00:12:49;99911.88;;;20.22;30.02
14293;BME280;62290;59.420;17.842;2023-04-25T00:15:18;99906.63;;;20.21;29.92
14293;BME280;62290;59.420;17.842;2023-04-25T00:17:46;99911.97;;;20.21;29.91
14293;BME280;62290;59.420;17.842;2023-04-25T00:20:16;99903.25;;;20.19;29.80
14293;BME280;62290;59.420;17.842;2023-04-25T00:22:44;99905.81;;;20.20;30.04
14293;BME280;62290;59.420;17.842;2023-04-25T00:25:12;99904.22;;;20.18;30.06
14293;BME280;62290;59.420;17.842;2023-04-25T00:27:39;99915.66;;;20.20;30.04
14293;BME280;62290;59.420;17.842;2023-04-25T00:30:09;99907.75;;;20.18;30.00
14293;BME280;62290;59.420;17.842;2023-04-25T00:32:37;99908.59;;;20.19;30.10
14293;BME280;62290;59.420;17.842;2023-04-25T00:35:06;99907.63;;;20.20;30.05
14293;BME280;62290;59.420;17.842;2023-04-25T00:37:35;99905.81;;;20.20;29.90
14293;BME280;62290;59.420;17.842;2023-04-25T00:40:06;99910.31;;;20.20;30.00
14293;BME280;62290;59.420;17.842;2023-04-25T00:42:35;99905.06;;;20.18;30.02
14293;BME280;62290;59.420;17.842;2023-04-25T00:45:05;99895.22;;;20.19;30.08
14293;BME280;62290;59.420;17.842;2023-04-25T00:47:35;99890.00;;;20.17;30.13
14293;BME280;62290;59.420;17.842;2023-04-25T00:50:05;99896.94;;;20.20;29.87
14293;BME280;62290;59.420;17.842;2023-04-25T00:52:35;99904.94;;;20.20;30.02
14293;BME280;62290;59.420;17.842;2023-04-25T00:55:03;99870.38;;;20.07;29.96
14293;BME280;62290;59.420;17.842;2023-04-25T00:57:31;99889.88;;;20.19;29.93
14293;BME280;62290;59.420;17.842;2023-04-25T01:00:00;99879.56;;;20.14;30.15
14293;BME280;62290;59.420;17.842;2023-04-25T01:02:28;99897.03;;;20.18;30.17
14293;BME280;62290;59.420;17.842;2023-04-25T01:04:57;99889.88;;;20.19;29.93
14293;BME280;62290;59.420;17.842;2023-04-25T01:07:25;99889.75;;;20.20;29.93
14293;BME280;62290;59.420;17.842;2023-04-25T01:09:55;99884.50;;;20.19;30.16
14293;BME280;62290;59.420;17.842;2023-04-25T01:12:23;99887.19;;;20.19;30.11
14293;BME280;62290;59.420;17.842;2023-04-25T01:14:52;99872.25;;;20.16;29.82
14293;BME280;62290;59.420;17.842;2023-04-25T01:17:20;99875.63;;;20.18;30.11
14293;BME280;62290;59.420;17.842;2023-04-25T01:19:48;99873.97;;;20.17;30.14
14293;BME280;62290;59.420;17.842;2023-04-25T01:22:19;99865.34;;;20.14;29.95
14293;BME280;62290;59.420;17.842;2023-04-25T01:24:47;99846.75;;;20.12;30.22
14293;BME280;62290;59.420;17.842;2023-04-25T01:27:16;99838.44;;;20.15;30.23
14293;BME280;62290;59.420;17.842;2023-04-25T01:29:45;99826.06;;;20.14;30.16
14293;BME280;62290;59.420;17.842;2023-04-25T01:32:14;99789.63;;;19.93;30.10
14293;BME280;62290;59.420;17.842;2023-04-25T01:34:42;99831.53;;;20.13;30.17
14293;BME280;62290;59.420;17.842;2023-04-25T01:37:10;99828.84;;;20.13;30.20
14293;BME280;62290;59.420;17.842;2023-04-25T01:39:40;99826.06;;;20.14;30.28
14293;BME280;62290;59.420;17.842;2023-04-25T01:42:08;99812.00;;;20.12;30.31
14293;BME280;62290;59.420;17.842;2023-04-25T01:44:36;99803.09;;;20.12;30.13
14293;BME280;62290;59.420;17.842;2023-04-25T01:47:04;99804.94;;;20.11;30.04
14293;BME280;62290;59.420;17.842;2023-04-25T01:49:32;99805.91;;;20.10;30.20
14293;BME280;62290;59.420;17.842;2023-04-25T01:52:01;99805.91;;;20.10;30.01
14293;BME280;62290;59.420;17.842;2023-04-25T01:54:29;99804.75;;;20.03;30.04
14293;BME280;62290;59.420;17.842;2023-04-25T01:56:59;99808.88;;;20.07;30.27
14293;BME280;62290;59.420;17.842;2023-04-25T01:59:29;99806.19;;;20.07;30.14
14293;BME280;62290;59.420;17.842;2023-04-25T02:02:15;99812.50;;;20.06;30.14
14293;BME280;62290;59.420;17.842;2023-04-25T02:04:43;99816.16;;;20.05;30.27
14293;BME280;62290;59.420;17.842;2023-04-25T02:07:12;99818.97;;;20.04;30.08
14293;BME280;62290;59.420;17.842;2023-04-25T02:09:52;99824.31;;;20.04;30.07
14293;BME280;62290;59.420;17.842;2023-04-25T02:12:23;99816.41;;;20.02;30.12
14293;BME280;62290;59.420;17.842;2023-04-25T02:15:11;99821.75;;;20.02;30.13
14293;BME280;62290;59.420;17.842;2023-04-25T02:17:43;99803.19;;;20.01;30.26
14293;BME280;62290;59.420;17.842;2023-04-25T02:20:12;99801.47;;;20.00;30.23
14293;BME280;62290;59.420;17.842;2023-04-25T02:22:40;99793.59;;;19.98;30.05
14293;BME280;62290;59.420;17.842;2023-04-25T02:25:09;99781.06;;;19.99;30.27
14293;BME280;62290;59.420;17.842;2023-04-25T02:27:39;99790.91;;;19.98;30.18
14293;BME280;62290;59.420;17.842;2023-04-25T02:30:08;99782.03;;;19.98;30.23
14293;BME280;62290;59.420;17.842;2023-04-25T02:32:36;99782.03;;;19.98;30.12
14293;BME280;62290;59.420;17.842;2023-04-25T02:35:05;99788.41;;;19.97;30.35
14293;BME280;62290;59.420;17.842;2023-04-25T02:37:34;99748.75;;;19.81;30.24
14293;BME280;62290;59.420;17.842;2023-04-25T02:40:03;99762.63;;;19.96;30.13
14293;BME280;62290;59.420;17.842;2023-04-25T02:42:32;99749.41;;;19.94;30.28
14293;BME280;62290;59.420;17.842;2023-04-25T02:45:01;99749.41;;;19.94;30.21
14293;BME280;62290;59.420;17.842;2023-04-25T02:47:30;99755.84;;;19.92;30.34
14293;BME280;62290;59.420;17.842;2023-04-25T02:49:58;99756.69;;;19.92;30.34
14293;BME280;62290;59.420;17.842;2023-04-25T02:52:26;99762.88;;;19.93;30.24
14293;BME280;62290;59.420;17.842;2023-04-25T02:55:02;99750.38;;;19.93;30.28
14293;BME280;62290;59.420;17.842;2023-04-25T02:57:31;99740.63;;;19.92;30.08
14293;BME280;62290;59.420;17.842;2023-04-25T03:00:01;99727.25;;;19.92;30.32
14293;BME280;62290;59.420;17.842;2023-04-25T03:02:30;99717.41;;;19.93;30.05
14293;BME280;62290;59.420;17.842;2023-04-25T03:04:59;99701.53;;;19.91;30.24
14293;BME280;62290;59.420;17.842;2023-04-25T03:07:27;99715.88;;;19.90;30.15
14293;BME280;62290;59.420;17.842;2023-04-25T03:09:56;99709.09;;;19.86;30.31
14293;BME280;62290;59.420;17.842;2023-04-25T03:12:24;99710.50;;;19.90;30.21
14293;BME280;62290;59.420;17.842;2023-04-25T03:14:52;99709.66;;;19.90;30.18
14293;BME280;62290;59.420;17.842;2023-04-25T03:17:22;99695.47;;;19.89;30.39
14293;BME280;62290;59.420;17.842;2023-04-25T03:19:50;99694.63;;;19.89;30.33
14293;BME280;62290;59.420;17.842;2023-04-25T03:22:18;99697.28;;;19.89;30.25
14293;BME280;62290;59.420;17.842;2023-04-25T03:24:46;99698.25;;;19.88;30.22
14293;BME280;62290;59.420;17.842;2023-04-25T03:27:14;99634.50;;;19.53;30.33
14293;BME280;62290;59.420;17.842;2023-04-25T03:29:43;99679.53;;;19.88;30.36
14293;BME280;62290;59.420;17.842;2023-04-25T03:32:11;99682.38;;;19.86;30.17
14293;BME280;62290;59.420;17.842;2023-04-25T03:34:41;99691.22;;;19.87;30.29
14293;BME280;62290;59.420;17.842;2023-04-25T03:37:09;99698.41;;;19.86;30.33
14293;BME280;62290;59.420;17.842;2023-04-25T03:39:37;99701.91;;;19.87;30.30
14293;BME280;62290;59.420;17.842;2023-04-25T03:42:06;99698.41;;;19.86;30.27
14293;BME280;62290;59.420;17.842;2023-04-25T03:44:34;99700.94;;;19.88;30.25
14293;BME280;62290;59.420;17.842;2023-04-25T03:47:02;99701.09;;;19.86;30.42
14293;BME280;62290;59.420;17.842;2023-04-25T03:49:32;99686.00;;;19.85;30.28
14293;BME280;62290;59.420;17.842;2023-04-25T03:52:03;99701.63;;;19.90;30.36
14293;BME280;62290;59.420;17.842;2023-04-25T03:54:37;99685.75;;;19.88;30.28
14293;BME280;62290;59.420;17.842;2023-04-25T03:57:18;99688.16;;;19.91;30.31
14293;BME280;62290;59.420;17.842;2023-04-25T03:59:46;99681.00;;;19.92;30.44
14293;BME280;62290;59.420;17.842;2023-04-25T04:02:15;99676.47;;;19.92;30.31
14293;BME280;62290;59.420;17.842;2023-04-25T04:04:43;99676.34;;;19.94;30.38
14293;BME280;62290;59.420;17.842;2023-04-25T04:07:14;99666.50;;;19.94;30.30
14293;BME280;62290;59.420;17.842;2023-04-25T04:09:48;99636.75;;;19.78;30.41
14293;BME280;62290;59.420;17.842;2023-04-25T04:12:25;99646.06;;;19.93;30.38
14293;BME280;62290;59.420;17.842;2023-04-25T04:14:53;99634.41;;;19.94;30.40
14293;BME280;62290;59.420;17.842;2023-04-25T04:17:21;99635.66;;;19.90;30.54
14293;BME280;62290;59.420;17.842;2023-04-25T04:19:50;99640.16;;;19.90;30.37
14293;BME280;62290;59.420;17.842;2023-04-25T04:22:21;99647.78;;;19.94;30.38
14293;BME280;62290;59.420;17.842;2023-04-25T04:24:51;99647.78;;;19.94;30.59
14293;BME280;62290;59.420;17.842;2023-04-25T04:27:37;99638.91;;;19.94;30.43
14293;BME280;62290;59.420;17.842;2023-04-25T04:30:21;99638.91;;;19.94;30.40
14293;BME280;62290;59.420;17.842;2023-04-25T04:32:57;99635.38;;;19.93;30.50
14293;BME280;62290;59.420;17.842;2023-04-25T04:35:25;99643.41;;;19.93;30.34
14293;BME280;62290;59.420;17.842;2023-04-25T04:37:55;99653.13;;;19.94;30.52
14293;BME280;62290;59.420;17.842;2023-04-25T04:40:26;99654.81;;;19.95;30.37
14293;BME280;62290;59.420;17.842;2023-04-25T04:43:04;99657.47;;;19.95;30.45
14293;BME280;62290;59.420;17.842;2023-04-25T04:45:42;99655.81;;;19.94;30.46
14293;BME280;62290;59.420;17.842;2023-04-25T04:48:31;99650.47;;;19.94;30.40
14293;BME280;62290;59.420;17.842;2023-04-25T04:51:19;99645.94;;;19.95;30.32
14293;BME280;62290;59.420;17.842;2023-04-25T04:53:55;99642.00;;;19.89;30.37
14293;BME280;62290;59.420;17.842;2023-04-25T04:56:50;99661.97;;;19.95;30.46
14293;BME280;62290;59.420;17.842;2023-04-25T04:59:25;99663.81;;;19.94;30.55
14293;BME280;62290;59.420;17.842;2023-04-25T05:02:11;99663.69;;;19.96;30.47
14293;BME280;62290;59.420;17.842;2023-04-25T05:04:50;99661.84;;;19.96;30.41
14293;BME280;62290;59.420;17.842;2023-04-25T05:07:25;99651.16;;;19.96;30.31
14293;BME280;62290;59.420;17.842;2023-04-25T05:10:06;99632.13;;;19.90;30.51
14293;BME280;62290;59.420;17.842;2023-04-25T05:13:00;99646.78;;;19.95;30.32
14293;BME280;62290;59.420;17.842;2023-04-25T05:15:44;99637.91;;;19.95;30.47
14293;BME280;62290;59.420;17.842;2023-04-25T05:18:34;99638.06;;;19.93;30.30
14293;BME280;62290;59.420;17.842;2023-04-25T05:21:28;99632.72;;;19.93;30.58
14293;BME280;62290;59.420;17.842;2023-04-25T05:24:18;99630.31;;;19.90;30.48
14293;BME280;62290;59.420;17.842;2023-04-25T05:27:02;99607.34;;;19.78;30.46
14293;BME280;62290;59.420;17.842;2023-04-25T05:30:04;99623.13;;;19.91;30.42
14293;BME280;62290;59.420;17.842;2023-04-25T05:32:49;99620.59;;;19.89;30.53
14293;BME280;62290;59.420;17.842;2023-04-25T05:35:17;99620.59;;;19.89;30.57
14293;BME280;62290;59.420;17.842;2023-04-25T05:37:47;99617.94;;;19.89;30.48
14293;BME280;62290;59.420;17.842;2023-04-25T05:40:16;99624.09;;;19.90;30.82
14293;BME280;62290;59.420;17.842;2023-04-25T05:42:45;99625.66;;;19.92;30.74
14293;BME280;62290;59.420;17.842;2023-04-25T05:45:19;99609.91;;;19.89;30.66
14293;BME280;62290;59.420;17.842;2023-04-25T05:48:25;99618.63;;;19.91;30.69
14293;BME280;62290;59.420;17.842;2023-04-25T05:51:17;99619.59;;;19.90;30.56
14293;BME280;62290;59.420;17.842;2023-04-25T05:54:05;99621.31;;;19.91;30.66
14293;BME280;62290;59.420;17.842;2023-04-25T05:56:34;99615.09;;;19.91;30.65
14293;BME280;62290;59.420;17.842;2023-04-25T05:59:03;99619.50;;;19.92;30.65
14293;BME280;62290;59.420;17.842;2023-04-25T06:01:31;99625.53;;;19.94;30.71
14293;BME280;62290;59.420;17.842;2023-04-25T06:03:59;99617.63;;;19.92;30.62
14293;BME280;62290;59.420;17.842;2023-04-25T06:06:28;99623.84;;;19.93;30.70
14293;BME280;62290;59.420;17.842;2023-04-25T06:08:58;99628.22;;;19.94;30.84
14293;BME280;62290;59.420;17.842;2023-04-25T06:11:27;99629.06;;;19.94;30.64
14293;BME280;62290;59.420;17.842;2023-04-25T06:13:55;99615.69;;;19.94;30.68
14293;BME280;62290;59.420;17.842;2023-04-25T06:16:24;99612.88;;;19.96;30.84
14293;BME280;62290;59.420;17.842;2023-04-25T06:18:53;99616.50;;;19.95;30.72
14293;BME280;62290;59.420;17.842;2023-04-25T06:21:21;99609.22;;;19.97;30.85
14293;BME280;62290;59.420;17.842;2023-04-25T06:23:50;99606.56;;;19.97;30.73
14293;BME280;62290;59.420;17.842;2023-04-25T06:26:22;99609.22;;;19.97;30.90
14293;BME280;62290;59.420;17.842;2023-04-25T06:28:51;99609.22;;;19.97;30.76
14293;BME280;62290;59.420;17.842;2023-04-25T06:31:19;99605.56;;;19.98;30.66
14293;BME280;62290;59.420;17.842;2023-04-25T06:33:49;99601.91;;;19.99;30.72
14293;BME280;62290;59.420;17.842;2023-04-25T06:36:23;99612.59;;;19.99;30.77
14293;BME280;62290;59.420;17.842;2023-04-25T06:38:55;99608.09;;;19.99;30.80
14293;BME280;62290;59.420;17.842;2023-04-25T06:41:23;99599.09;;;20.00;30.93
14293;BME280;62290;59.420;17.842;2023-04-25T06:43:53;99597.41;;;19.99;30.83
14293;BME280;62290;59.420;17.842;2023-04-25T06:46:26;99592.88;;;19.90;30.81
14293;BME280;62290;59.420;17.842;2023-04-25T06:48:58;99620.75;;;19.97;30.82
14293;BME280;62290;59.420;17.842;2023-04-25T06:51:27;99623.16;;;20.00;30.98
14293;BME280;62290;59.420;17.842;2023-04-25T06:53:57;99608.66;;;19.93;30.93
14293;BME280;62290;59.420;17.842;2023-04-25T06:56:31;99626.69;;;20.01;30.77
14293;BME280;62290;59.420;17.842;2023-04-25T06:59:06;99624.72;;;20.03;30.94
14293;BME280;62290;59.420;17.842;2023-04-25T07:01:37;99624.44;;;20.06;31.12
14293;BME280;62290;59.420;17.842;2023-04-25T07:04:11;99618.13;;;20.07;30.94
14293;BME280;62290;59.420;17.842;2023-04-25T07:06:45;99627.69;;;20.09;31.00
14293;BME280;62290;59.420;17.842;2023-04-25T07:09:17;99616.72;;;20.12;31.04
14293;BME280;62290;59.420;17.842;2023-04-25T07:11:48;99623.31;;;20.18;30.97
14293;BME280;62290;59.420;17.842;2023-04-25T07:14:16;99624.91;;;20.20;31.04
14293;BME280;62290;59.420;17.842;2023-04-25T07:16:44;99625.38;;;20.25;31.12
14293;BME280;62290;59.420;17.842;2023-04-25T07:19:14;99621.28;;;20.31;31.19
14293;BME280;62290;59.420;17.842;2023-04-25T07:21:42;99617.63;;;20.32;31.38
14293;BME280;62290;59.420;17.842;2023-04-25T07:24:11;99624.69;;;20.43;31.50
14293;BME280;62290;59.420;17.842;2023-04-25T07:26:43;99623.13;;;20.40;31.50
14293;BME280;62290;59.420;17.842;2023-04-25T07:29:35;99652.19;;;20.54;31.14
14293;BME280;62290;59.420;17.842;2023-04-25T07:32:04;99653.72;;;20.57;31.12
14293;BME280;62290;59.420;17.842;2023-04-25T07:34:33;99652.16;;;20.64;31.29
14293;BME280;62290;59.420;17.842;2023-04-25T07:37:04;99649.22;;;20.67;31.30
14293;BME280;62290;59.420;17.842;2023-04-25T07:39:40;99647.94;;;20.71;31.14
14293;BME280;62290;59.420;17.842;2023-04-25T07:42:08;99642.31;;;20.74;31.23
14293;BME280;62290;59.420;17.842;2023-04-25T07:44:40;99643.69;;;20.78;31.50
14293;BME280;62290;59.420;17.842;2023-04-25T07:47:11;99640.06;;;20.79;31.14
14293;BME280;62290;59.420;17.842;2023-04-25T07:49:41;99644.84;;;20.85;31.16
14293;BME280;62290;59.420;17.842;2023-04-25T07:52:09;99642.88;;;20.87;31.41
14293;BME280;62290;59.420;17.842;2023-04-25T07:54:42;99638.09;;;20.90;31.32
14293;BME280;62290;59.420;17.842;2023-04-25T07:57:16;99639.63;;;20.93;31.21
14293;BME280;62290;59.420;17.842;2023-04-25T07:59:46;99642.03;;;20.96;31.17
14293;BME280;62290;59.420;17.842;2023-04-25T08:02:15;99603.84;;;20.75;31.08
14293;BME280;62290;59.420;17.842;2023-04-25T08:04:45;99633.00;;;20.97;30.84
14293;BME280;62290;59.420;17.842;2023-04-25T08:07:16;99642.44;;;21.01;31.16
14293;BME280;62290;59.420;17.842;2023-04-25T08:09:49;99637.63;;;21.05;31.21
14293;BME280;62290;59.420;17.842;2023-04-25T08:12:23;99641.88;;;21.07;31.20
14293;BME280;62290;59.420;17.842;2023-04-25T08:14:52;99635.69;;;21.07;30.72
14293;BME280;62290;59.420;17.842;2023-04-25T08:17:22;99639.47;;;21.04;31.14
14293;BME280;62290;59.420;17.842;2023-04-25T08:19:52;99631.00;;;20.99;30.77
14293;BME280;62290;59.420;17.842;2023-04-25T08:22:25;99644.28;;;21.01;30.69
14293;BME280;62290;59.420;17.842;2023-04-25T08:25:10;99643.41;;;21.00;30.66
14293;BME280;62290;59.420;17.842;2023-04-25T08:27:39;99649.63;;;21.01;30.79
14293;BME280;62290;59.420;17.842;2023-04-25T08:30:08;99653.28;;;21.00;31.07
14293;BME280;62290;59.420;17.842;2023-04-25T08:32:38;99650.47;;;21.01;30.92
14293;BME280;62290;59.420;17.842;2023-04-25T08:35:42;99658.53;;;21.01;30.69
14293;BME280;62290;59.420;17.842;2023-04-25T08:38:11;99658.53;;;21.01;30.81
14293;BME280;62290;59.420;17.842;2023-04-25T08:40:39;99662.88;;;21.02;30.96
14293;BME280;62290;59.420;17.842;2023-04-25T08:43:13;99666.25;;;21.04;30.83
14293;BME280;62290;59.420;17.842;2023-04-25T08:45:42;99666.00;;;21.07;31.05
14293;BME280;62290;59.420;17.842;2023-04-25T08:48:16;99671.34;;;21.07;31.00
14293;BME280;62290;59.420;17.842;2023-04-25T08:50:50;99676.16;;;21.13;31.15
14293;BME280;62290;59.420;17.842;2023-04-25T08:53:22;99680.53;;;21.14;31.02
14293;BME280;62290;59.420;17.842;2023-04-25T08:55:56;99681.22;;;21.16;31.04
14293;BME280;62290;59.420;17.842;2023-04-25T08:58:25;99680.94;;;21.19;31.45
14293;BME280;62290;59.420;17.842;2023-04-25T09:00:53;99673.59;;;21.21;31.30
14293;BME280;62290;59.420;17.842;2023-04-25T09:03:25;99676.00;;;21.24;31.35
14293;BME280;62290;59.420;17.842;2023-04-25T09:05:56;99678.41;;;21.27;31.41
14293;BME280;62290;59.420;17.842;2023-04-25T09:08:24;99669.50;;;21.27;32.15
14293;BME280;62290;59.420;17.842;2023-04-25T09:10:52;99680.66;;;21.32;31.98
14293;BME280;62290;59.420;17.842;2023-04-25T09:13:25;99683.88;;;21.35;32.99
14293;BME280;62290;59.420;17.842;2023-04-25T09:16:10;99680.06;;;21.38;33.48
14293;BME280;62290;59.420;17.842;2023-04-25T09:19:01;99686.81;;;21.42;34.34
14293;BME280;62290;59.420;17.842;2023-04-25T09:21:34;99685.69;;;21.44;35.61
14293;BME280;62290;59.420;17.842;2023-04-25T09:24:04;99686.38;;;21.46;36.35
14293;BME280;62290;59.420;17.842;2023-04-25T09:26:32;99670.06;;;21.40;37.56
14293;BME280;62290;59.420;17.842;2023-04-25T09:29:05;99689.34;;;21.53;38.64
14293;BME280;62290;59.420;17.842;2023-04-25T09:31:36;99695.41;;;21.55;38.75
14293;BME280;62290;59.420;17.842;2023-04-25T09:34:06;99684.00;;;21.53;39.21
14293;BME280;62290;59.420;17.842;2023-04-25T09:36:44;99692.16;;;21.61;39.82
14293;BME280;62290;59.420;17.842;2023-04-25T09:39:15;99702.72;;;21.63;40.22
14293;BME280;62290;59.420;17.842;2023-04-25T09:41:53;99706.78;;;21.67;40.38
14293;BME280;62290;59.420;17.842;2023-04-25T09:44:23;99704.53;;;21.72;40.93
14293;BME280;62290;59.420;17.842;2023-04-25T09:46:53;99703.53;;;21.73;41.62
14293;BME280;62290;59.420;17.842;2023-04-25T09:49:25;99671.00;;;21.58;42.07
14293;BME280;62290;59.420;17.842;2023-04-25T09:52:03;99703.94;;;21.78;42.33
14293;BME280;62290;59.420;17.842;2023-04-25T09:54:44;99707.31;;;21.80;42.43
14293;BME280;62290;59.420;17.842;2023-04-25T09:57:17;99712.41;;;21.83;42.42
14293;BME280;62290;59.420;17.842;2023-04-25T09:59:47;99714.81;;;21.86;41.96
14293;BME280;62290;59.420;17.842;2023-04-25T10:02:18;99723.44;;;21.89;41.36
14293;BME280;62290;59.420;17.842;2023-04-25T10:04:50;99714.25;;;21.92;40.68
14293;BME280;62290;59.420;17.842;2023-04-25T10:07:36;99722.00;;;21.95;40.25
14293;BME280;62290;59.420;17.842;2023-04-25T10:10:12;99720.00;;;21.97;39.92
14293;BME280;62290;59.420;17.842;2023-04-25T10:12:41;99722.41;;;22.00;39.65
14293;BME280;62290;59.420;17.842;2023-04-25T10:15:11;99724.94;;;22.01;39.05
14293;BME280;62290;59.420;17.842;2023-04-25T10:17:40;99723.03;;;22.11;38.78
14293;BME280;62290;59.420;17.842;2023-04-25T10:20:08;99721.31;;;22.20;38.21
14293;BME280;62290;59.420;17.842;2023-04-25T10:22:41;99727.53;;;22.21;37.86
14293;BME280;62290;59.420;17.842;2023-04-25T10:25:10;99727.53;;;22.21;37.38
14293;BME280;62290;59.420;17.842;2023-04-25T10:27:39;99734.91;;;22.19;37.22
14293;BME280;62290;59.420;17.842;2023-04-25T10:30:08;99735.72;;;22.19;37.14
14293;BME280;62290;59.420;17.842;2023-04-25T10:32:39;99740.28;;;22.19;37.08
14293;BME280;62290;59.420;17.842;2023-04-25T10:35:12;99737.59;;;22.19;36.78
14293;BME280;62290;59.420;17.842;2023-04-25T10:38:00;99738.41;;;22.19;36.53
14293;BME280;62290;59.420;17.842;2023-04-25T10:40:30;99741.38;;;22.16;36.62
14293;BME280;62290;59.420;17.842;2023-04-25T10:46:00;99738.00;;;22.14;36.20
14293;BME280;62290;59.420;17.842;2023-04-25T10:48:28;99735.88;;;22.18;36.02
14293;BME280;62290;59.420;17.842;2023-04-25T10:51:09;99748.16;;;22.20;35.93
14293;BME280;62290;59.420;17.842;2023-04-25T10:53:39;99741.09;;;22.19;36.14
14293;BME280;62290;59.420;17.842;2023-04-25T10:56:10;99749.00;;;22.21;36.10
14293;BME280;62290;59.420;17.842;2023-04-25T10:58:44;99725.03;;;22.09;36.31
14293;BME280;62290;59.420;17.842;2023-04-25T11:01:12;99749.69;;;22.23;36.82
14293;BME280;62290;59.420;17.842;2023-04-25T11:03:42;99752.38;;;22.23;36.94
14293;BME280;62290;59.420;17.842;2023-04-25T11:06:20;99758.16;;;22.28;36.96
14293;BME280;62290;59.420;17.842;2023-04-25T11:08:51;99749.25;;;22.27;36.74
14293;BME280;62290;59.420;17.842;2023-04-25T11:11:20;99718.81;;;22.09;36.82
14293;BME280;62290;59.420;17.842;2023-04-25T11:13:48;99756.31;;;22.28;36.35
14293;BME280;62290;59.420;17.842;2023-04-25T11:16:17;99750.94;;;22.28;36.40
14293;BME280;62290;59.420;17.842;2023-04-25T11:18:56;99764.22;;;22.30;36.24
14293;BME280;62290;59.420;17.842;2023-04-25T11:21:25;99759.00;;;22.28;35.89
14293;BME280;62290;59.420;17.842;2023-04-25T11:23:56;99768.03;;;22.27;35.75
14293;BME280;62290;59.420;17.842;2023-04-25T11:26:24;99766.38;;;22.26;35.65
14293;BME280;62290;59.420;17.842;2023-04-25T11:28:57;99769.44;;;22.31;35.42
14293;BME280;62290;59.420;17.842;2023-04-25T11:31:25;99766.03;;;22.29;35.35
14293;BME280;62290;59.420;17.842;2023-04-25T11:33:53;99768.72;;;22.29;35.41
14293;BME280;62290;59.420;17.842;2023-04-25T11:36:22;99761.97;;;22.25;35.03
14293;BME280;62290;59.420;17.842;2023-04-25T11:38:50;99771.41;;;22.29;34.72
14293;BME280;62290;59.420;17.842;2023-04-25T11:41:20;99764.66;;;22.25;35.10
14293;BME280;62290;59.420;17.842;2023-04-25T11:43:49;99775.97;;;22.29;34.87
14293;BME280;62290;59.420;17.842;2023-04-25T11:46:18;99771.28;;;22.31;34.60
14293;BME280;62290;59.420;17.842;2023-04-25T11:48:47;99763.69;;;22.26;34.66
14293;BME280;62290;59.420;17.842;2023-04-25T11:51:17;99770.44;;;22.30;34.82
14293;BME280;62290;59.420;17.842;2023-04-25T11:53:45;99768.72;;;22.29;34.53
14293;BME280;62290;59.420;17.842;2023-04-25T11:56:13;99771.41;;;22.29;34.55
14293;BME280;62290;59.420;17.842;2023-04-25T11:58:56;99752.69;;;22.20;34.56
14293;BME280;62290;59.420;17.842;2023-04-25T12:01:28;99773.13;;;22.30;34.42
14293;BME280;62290;59.420;17.842;2023-04-25T12:04:11;99774.81;;;22.31;34.36
14293;BME280;62290;59.420;17.842;2023-04-25T12:06:41;99772.13;;;22.31;34.49
14293;BME280;62290;59.420;17.842;2023-04-25T12:09:10;99766.75;;;22.31;34.33
14293;BME280;62290;59.420;17.842;2023-04-25T12:11:43;99768.44;;;22.32;34.35
14293;BME280;62290;59.420;17.842;2023-04-25T12:14:21;99764.91;;;22.32;34.23
14293;BME280;62290;59.420;17.842;2023-04-25T12:16:51;99765.06;;;22.30;34.43
14293;BME280;62290;59.420;17.842;2023-04-25T12:19:20;99762.38;;;22.30;34.09
14293;BME280;62290;59.420;17.842;2023-04-25T12:21:48;99774.66;;;22.33;34.15
14293;BME280;62290;59.420;17.842;2023-04-25T12:24:26;99772.94;;;22.32;33.85
14293;BME280;62290;59.420;17.842;2023-04-25T12:26:59;99774.66;;;22.33;34.13
14293;BME280;62290;59.420;17.842;2023-04-25T12:29:31;99770.13;;;22.33;34.15
14293;BME280;62290;59.420;17.842;2023-04-25T12:32:14;99771.00;;;22.34;34.13
14293;BME280;62290;59.420;17.842;2023-04-25T12:34:42;99775.50;;;22.33;34.21
14293;BME280;62290;59.420;17.842;2023-04-25T12:37:10;99772.81;;;22.33;33.98
14293;BME280;62290;59.420;17.842;2023-04-25T12:39:39;99777.22;;;22.34;34.00
14293;BME280;62290;59.420;17.842;2023-04-25T12:42:07;99772.53;;;22.36;34.13
14293;BME280;62290;59.420;17.842;2023-04-25T12:44:39;99775.91;;;22.38;34.18
14293;BME280;62290;59.420;17.842;2023-04-25T12:47:08;99763.34;;;22.39;33.86
14293;BME280;62290;59.420;17.842;2023-04-25T12:49:36;99769.56;;;22.39;33.82
14293;BME280;62290;59.420;17.842;2023-04-25T12:52:04;99770.38;;;22.40;34.02
14293;BME280;62290;59.420;17.842;2023-04-25T12:54:32;99761.50;;;22.39;33.92
14293;BME280;62290;59.420;17.842;2023-04-25T12:57:01;99759.63;;;22.40;33.76
14293;BME280;62290;59.420;17.842;2023-04-25T12:59:29;99760.66;;;22.39;33.77
14293;BME280;62290;59.420;17.842;2023-04-25T13:01:59;99767.41;;;22.43;34.12
14293;BME280;62290;59.420;17.842;2023-04-25T13:04:27;99759.97;;;22.37;33.70
14293;BME280;62290;59.420;17.842;2023-04-25T13:06:55;99769.22;;;22.42;33.84
14293;BME280;62290;59.420;17.842;2023-04-25T13:09:24;99761.19;;;22.42;33.96
14293;BME280;62290;59.420;17.842;2023-04-25T13:11:52;99760.03;;;22.45;33.96
14293;BME280;62290;59.420;17.842;2023-04-25T13:14:23;99759.22;;;22.44;33.71
14293;BME280;62290;59.420;17.842;2023-04-25T13:16:52;99754.66;;;22.45;33.58